sensor_id;sensor_type;location;lat;lon;timestamp;P1;durP1;ratioP1;P2;durP2;ratioP2
20830;SDS011;10576;53.556;9.868;2023-04-24T00:01:26;9.90;;;9.03;;
20830;SDS011;10576;53.556;9.868;2023-04-24T00:03:54;12.15;;;9.40;;
20830;SDS011;10576;53.556;9.868;2023-04-24T00:06:21;10.18;;;8.85;;
20830;SDS011;10576;53.556;9.868;2023-04-24T00:08:48;9.43;;;8.50;;
20830;SDS011;10576;53.556;9.868;2023-04-24T00:11:14;8.80;;;8.00;;
20830;SDS011;10576;53.556;9.868;2023-04-24T00:13:39;9.10;;;8.30;;
20830;SDS011;10576;53.556;9.868;2023-04-24T00:16:05;8.93;;;8.13;;
20830;SDS011;10576;53.556;9.868;2023-04-24T00:18:31;9.10;;;8.23;;
20830;SDS011;10576;53.556;9.868;2023-04-24T00:20:56;9.07;;;8.02;;
20830;SDS011;10576;53.556;9.868;2023-04-24T00:23:22;9.20;;;8.30;;
20830;SDS011;10576;53.556;9.868;2023-04-24T00:25:47;8.65;;;7.85;;
20830;SDS011;10576;53.556;9.868;2023-04-24T00:28:13;8.27;;;7.57;;
20830;SDS011;10576;53.556;9.868;2023-04-24T00:30:39;8.47;;;7.63;;
20830;SDS011;10576;53.556;9.868;2023-04-24T00:33:05;8.60;;;7.80;;
20830;SDS011;10576;53.556;9.868;2023-04-24T00:35:30;8.50;;;7.70;;
20830;SDS011;10576;53.556;9.868;2023-04-24T00:37:56;8.23;;;7.53;;
20830;SDS011;10576;53.556;9.868;2023-04-24T00:40:22;8.32;;;7.68;;
20830;SDS011;10576;53.556;9.868;2023-04-24T00:42:47;8.90;;;8.10;;
20830;SDS011;10576;53.556;9.868;2023-04-24T00:45:13;9.65;;;8.38;;
20830;SDS011;10576;53.556;9.868;2023-04-24T00:47:39;9.13;;;8.30;;
20830;SDS011;10576;53.556;9.868;2023-04-24T00:50:07;9.07;;;8.27;;
20830;SDS011;10576;53.556;9.868;2023-04-24T00:52:33;8.57;;;7.70;;
20830;SDS011;10576;53.556;9.868;2023-04-24T00:54:59;9.57;;;8.57;;
20830;SDS011;10576;53.556;9.868;2023-04-24T00:57:25;8.95;;;8.05;;
20830;SDS011;10576;53.556;9.868;2023-04-24T00:59:51;9.20;;;8.30;;
20830;SDS011;10576;53.556;9.868;2023-04-24T01:02:18;8.60;;;7.80;;
20830;SDS011;10576;53.556;9.868;2023-04-24T01:04:44;8.55;;;7.82;;
20830;SDS011;10576;53.556;9.868;2023-04-24T01:07:10;8.60;;;7.80;;
20830;SDS011;10576;53.556;9.868;2023-04-24T01:09:42;9.33;;;8.43;;
20830;SDS011;10576;53.556;9.868;2023-04-24T01:12:12;8.75;;;7.95;;
20830;SDS011;10576;53.556;9.868;2023-04-24T01:14:37;8.10;;;7.40;;
20830;SDS011;10576;53.556;9.868;2023-04-24T01:17:03;7.78;;;7.07;;
20830;SDS011;10576;53.556;9.868;2023-04-24T01:19:29;7.15;;;6.55;;
20830;SDS011;10576;53.556;9.868;2023-04-24T01:21:54;6.93;;;6.38;;
20830;SDS011;10576;53.556;9.868;2023-04-24T01:24:23;7.22;;;6.63;;
20830;SDS011;10576;53.556;9.868;2023-04-24T01:26:49;7.25;;;6.65;;
20830;SDS011;10576;53.556;9.868;2023-04-24T01:29:15;6.47;;;5.97;;
20830;SDS011;10576;53.556;9.868;2023-04-24T01:31:41;6.50;;;5.90;;
20830;SDS011;10576;53.556;9.868;2023-04-24T01:34:06;6.57;;;5.83;;
20830;SDS011;10576;53.556;9.868;2023-04-24T01:36:33;6.22;;;5.72;;
20830;SDS011;10576;53.556;9.868;2023-04-24T01:39:00;6.43;;;5.83;;
20830;SDS011;10576;53.556;9.868;2023-04-24T01:41:26;5.82;;;5.32;;
20830;SDS011;10576;53.556;9.868;2023-04-24T01:43:52;5.90;;;5.40;;
20830;SDS011;10576;53.556;9.868;2023-04-24T01:46:18;5.72;;;5.13;;
20830;SDS011;10576;53.556;9.868;2023-04-24T01:48:45;5.03;;;4.63;;
20830;SDS011;10576;53.556;9.868;2023-04-24T01:51:11;4.97;;;4.47;;
20830;SDS011;10576;53.556;9.868;2023-04-24T01:53:36;4.97;;;4.57;;
20830;SDS011;10576;53.556;9.868;2023-04-24T01:56:02;4.82;;;4.43;;
20830;SDS011;10576;53.556;9.868;2023-04-24T01:58:28;4.70;;;4.28;;
20830;SDS011;10576;53.556;9.868;2023-04-24T02:00:56;4.35;;;3.95;;
20830;SDS011;10576;53.556;9.868;2023-04-24T02:03:22;3.80;;;3.50;;
20830;SDS011;10576;53.556;9.868;2023-04-24T02:05:48;3.93;;;3.60;;
20830;SDS011;10576;53.556;9.868;2023-04-24T02:08:13;3.60;;;3.30;;
20830;SDS011;10576;53.556;9.868;2023-04-24T02:10:39;3.97;;;3.20;;
20830;SDS011;10576;53.556;9.868;2023-04-24T02:13:04;3.37;;;3.07;;
20830;SDS011;10576;53.556;9.868;2023-04-24T02:15:30;3.00;;;2.80;;
20830;SDS011;10576;53.556;9.868;2023-04-24T02:17:56;4.37;;;3.50;;
20830;SDS011;10576;53.556;9.868;2023-04-24T02:20:21;3.00;;;2.80;;
20830;SDS011;10576;53.556;9.868;2023-04-24T02:22:47;3.20;;;2.90;;
20830;SDS011;10576;53.556;9.868;2023-04-24T02:25:12;2.83;;;2.63;;
20830;SDS011;10576;53.556;9.868;2023-04-24T02:27:38;3.05;;;2.85;;
20830;SDS011;10576;53.556;9.868;2023-04-24T02:30:04;3.03;;;2.83;;
20830;SDS011;10576;53.556;9.868;2023-04-24T02:32:30;3.03;;;2.70;;
20830;SDS011;10576;53.556;9.868;2023-04-24T02:34:55;4.30;;;2.63;;
20830;SDS011;10576;53.556;9.868;2023-04-24T02:37:21;3.10;;;2.80;;
20830;SDS011;10576;53.556;9.868;2023-04-24T02:39:47;2.90;;;2.70;;
20830;SDS011;10576;53.556;9.868;2023-04-24T02:42:13;3.15;;;2.95;;
20830;SDS011;10576;53.556;9.868;2023-04-24T02:44:38;3.05;;;2.83;;
20830;SDS011;10576;53.556;9.868;2023-04-24T02:47:04;3.00;;;2.80;;
20830;SDS011;10576;53.556;9.868;2023-04-24T02:49:29;3.08;;;2.88;;
20830;SDS011;10576;53.556;9.868;2023-04-24T02:51:55;3.10;;;2.90;;
20830;SDS011;10576;53.556;9.868;2023-04-24T02:54:20;3.40;;;3.15;;
20830;SDS011;10576;53.556;9.868;2023-04-24T02:56:46;3.43;;;3.13;;
20830;SDS011;10576;53.556;9.868;2023-04-24T02:59:12;3.50;;;3.20;;
20830;SDS011;10576;53.556;9.868;2023-04-24T03:01:37;3.60;;;3.28;;
20830;SDS011;10576;53.556;9.868;2023-04-24T03:04:03;3.40;;;3.15;;
20830;SDS011;10576;53.556;9.868;2023-04-24T03:06:29;3.50;;;3.20;;
20830;SDS011;10576;53.556;9.868;2023-04-24T03:08:56;3.33;;;3.13;;
20830;SDS011;10576;53.556;9.868;2023-04-24T03:11:21;3.33;;;3.03;;
20830;SDS011;10576;53.556;9.868;2023-04-24T03:13:47;3.60;;;3.00;;
20830;SDS011;10576;53.556;9.868;2023-04-24T03:16:13;3.33;;;3.00;;
20830;SDS011;10576;53.556;9.868;2023-04-24T03:18:38;3.57;;;2.93;;
20830;SDS011;10576;53.556;9.868;2023-04-24T03:21:04;3.20;;;2.90;;
20830;SDS011;10576;53.556;9.868;2023-04-24T03:23:30;3.07;;;2.80;;
20830;SDS011;10576;53.556;9.868;2023-04-24T03:25:55;3.10;;;2.80;;
20830;SDS011;10576;53.556;9.868;2023-04-24T03:28:21;3.10;;;2.90;;
20830;SDS011;10576;53.556;9.868;2023-04-24T03:30:46;3.10;;;2.80;;
20830;SDS011;10576;53.556;9.868;2023-04-24T03:33:12;3.13;;;2.87;;
20830;SDS011;10576;53.556;9.868;2023-04-24T03:35:37;3.43;;;2.80;;
20830;SDS011;10576;53.556;9.868;2023-04-24T03:38:03;3.17;;;2.87;;
20830;SDS011;10576;53.556;9.868;2023-04-24T03:40:29;2.80;;;2.60;;
20830;SDS011;10576;53.556;9.868;2023-04-24T03:42:55;2.88;;;2.67;;
20830;SDS011;10576;53.556;9.868;2023-04-24T03:45:21;3.10;;;2.83;;
20830;SDS011;10576;53.556;9.868;2023-04-24T03:47:46;3.00;;;2.80;;
20830;SDS011;10576;53.556;9.868;2023-04-24T03:50:12;2.90;;;2.70;;
20830;SDS011;10576;53.556;9.868;2023-04-24T03:52:37;3.22;;;2.60;;
20830;SDS011;10576;53.556;9.868;2023-04-24T03:55:03;3.10;;;2.60;;
20830;SDS011;10576;53.556;9.868;2023-04-24T03:57:29;2.95;;;2.75;;
20830;SDS011;10576;53.556;9.868;2023-04-24T03:59:55;2.87;;;2.63;;
20830;SDS011;10576;53.556;9.868;2023-04-24T04:02:20;2.90;;;2.70;;
20830;SDS011;10576;53.556;9.868;2023-04-24T04:04:46;2.80;;;2.60;;
20830;SDS011;10576;53.556;9.868;2023-04-24T04:07:11;2.83;;;2.60;;
20830;SDS011;10576;53.556;9.868;2023-04-24T04:09:37;3.00;;;2.70;;
20830;SDS011;10576;53.556;9.868;2023-04-24T04:12:03;2.72;;;2.50;;
20830;SDS011;10576;53.556;9.868;2023-04-24T04:14:29;2.70;;;2.50;;
20830;SDS011;10576;53.556;9.868;2023-04-24T04:16:54;3.42;;;2.70;;
20830;SDS011;10576;53.556;9.868;2023-04-24T04:19:20;3.25;;;2.70;;
20830;SDS011;10576;53.556;9.868;2023-04-24T04:21:46;2.70;;;2.50;;
20830;SDS011;10576;53.556;9.868;2023-04-24T04:24:17;3.30;;;2.50;;
20830;SDS011;10576;53.556;9.868;2023-04-24T04:26:42;2.50;;;2.30;;
20830;SDS011;10576;53.556;9.868;2023-04-24T04:29:12;2.60;;;2.40;;
20830;SDS011;10576;53.556;9.868;2023-04-24T04:31:38;3.25;;;2.50;;
20830;SDS011;10576;53.556;9.868;2023-04-24T04:34:03;2.60;;;2.40;;
20830;SDS011;10576;53.556;9.868;2023-04-24T04:36:29;2.60;;;2.40;;
20830;SDS011;10576;53.556;9.868;2023-04-24T04:38:55;2.50;;;2.30;;
20830;SDS011;10576;53.556;9.868;2023-04-24T04:41:21;2.60;;;2.40;;
20830;SDS011;10576;53.556;9.868;2023-04-24T04:43:48;3.13;;;2.42;;
20830;SDS011;10576;53.556;9.868;2023-04-24T04:46:13;2.33;;;2.20;;
20830;SDS011;10576;53.556;9.868;2023-04-24T04:48:39;2.30;;;2.10;;
20830;SDS011;10576;53.556;9.868;2023-04-24T04:51:05;2.28;;;2.05;;
20830;SDS011;10576;53.556;9.868;2023-04-24T04:53:31;2.72;;;2.30;;
20830;SDS011;10576;53.556;9.868;2023-04-24T04:55:56;2.70;;;2.50;;
20830;SDS011;10576;53.556;9.868;2023-04-24T04:58:22;2.30;;;2.20;;
20830;SDS011;10576;53.556;9.868;2023-04-24T05:00:48;2.28;;;2.08;;
20830;SDS011;10576;53.556;9.868;2023-04-24T05:03:14;2.00;;;1.90;;
20830;SDS011;10576;53.556;9.868;2023-04-24T05:05:40;2.40;;;2.20;;
20830;SDS011;10576;53.556;9.868;2023-04-24T05:08:06;2.50;;;2.10;;
20830;SDS011;10576;53.556;9.868;2023-04-24T05:10:33;2.20;;;2.10;;
20830;SDS011;10576;53.556;9.868;2023-04-24T05:12:59;2.40;;;2.20;;
20830;SDS011;10576;53.556;9.868;2023-04-24T05:15:26;2.10;;;1.92;;
20830;SDS011;10576;53.556;9.868;2023-04-24T05:17:51;1.92;;;1.83;;
20830;SDS011;10576;53.556;9.868;2023-04-24T05:20:17;2.00;;;1.90;;
20830;SDS011;10576;53.556;9.868;2023-04-24T05:22:43;3.35;;;2.10;;
20830;SDS011;10576;53.556;9.868;2023-04-24T05:25:08;2.10;;;1.83;;
20830;SDS011;10576;53.556;9.868;2023-04-24T05:27:34;2.15;;;1.90;;
20830;SDS011;10576;53.556;9.868;2023-04-24T05:30:00;1.83;;;1.73;;
20830;SDS011;10576;53.556;9.868;2023-04-24T05:32:25;2.90;;;1.90;;
20830;SDS011;10576;53.556;9.868;2023-04-24T05:34:52;1.80;;;1.70;;
20830;SDS011;10576;53.556;9.868;2023-04-24T05:37:17;1.60;;;1.50;;
20830;SDS011;10576;53.556;9.868;2023-04-24T05:39:43;1.85;;;1.75;;
20830;SDS011;10576;53.556;9.868;2023-04-24T05:42:08;1.80;;;1.70;;
20830;SDS011;10576;53.556;9.868;2023-04-24T05:44:34;1.90;;;1.80;;
20830;SDS011;10576;53.556;9.868;2023-04-24T05:47:00;2.33;;;1.60;;
20830;SDS011;10576;53.556;9.868;2023-04-24T05:49:26;2.20;;;1.80;;
20830;SDS011;10576;53.556;9.868;2023-04-24T05:51:52;2.30;;;1.85;;
20830;SDS011;10576;53.556;9.868;2023-04-24T05:54:18;1.98;;;1.88;;
20830;SDS011;10576;53.556;9.868;2023-04-24T05:56:43;1.80;;;1.70;;
20830;SDS011;10576;53.556;9.868;2023-04-24T05:59:09;1.80;;;1.70;;
20830;SDS011;10576;53.556;9.868;2023-04-24T06:01:35;1.80;;;1.70;;
20830;SDS011;10576;53.556;9.868;2023-04-24T06:04:02;1.90;;;1.80;;
20830;SDS011;10576;53.556;9.868;2023-04-24T06:06:29;2.17;;;1.80;;
20830;SDS011;10576;53.556;9.868;2023-04-24T06:08:55;1.92;;;1.83;;
20830;SDS011;10576;53.556;9.868;2023-04-24T06:11:21;1.92;;;1.80;;
20830;SDS011;10576;53.556;9.868;2023-04-24T06:13:47;2.00;;;1.80;;
20830;SDS011;10576;53.556;9.868;2023-04-24T06:16:13;2.00;;;1.90;;
20830;SDS011;10576;53.556;9.868;2023-04-24T06:18:39;2.42;;;1.60;;
20830;SDS011;10576;53.556;9.868;2023-04-24T06:21:05;1.90;;;1.80;;
20830;SDS011;10576;53.556;9.868;2023-04-24T06:23:31;1.70;;;1.60;;
20830;SDS011;10576;53.556;9.868;2023-04-24T06:25:58;1.92;;;1.83;;
20830;SDS011;10576;53.556;9.868;2023-04-24T06:28:23;2.53;;;1.70;;
20830;SDS011;10576;53.556;9.868;2023-04-24T06:30:49;2.17;;;1.83;;
20830;SDS011;10576;53.556;9.868;2023-04-24T06:33:15;2.88;;;2.00;;
20830;SDS011;10576;53.556;9.868;2023-04-24T06:35:41;2.85;;;1.95;;
20830;SDS011;10576;53.556;9.868;2023-04-24T06:38:07;2.10;;;1.90;;
20830;SDS011;10576;53.556;9.868;2023-04-24T06:40:33;5.35;;;2.03;;
20830;SDS011;10576;53.556;9.868;2023-04-24T06:42:58;2.10;;;2.00;;
20830;SDS011;10576;53.556;9.868;2023-04-24T06:45:25;2.15;;;1.95;;
20830;SDS011;10576;53.556;9.868;2023-04-24T06:47:50;2.40;;;2.20;;
20830;SDS011;10576;53.556;9.868;2023-04-24T06:50:16;2.23;;;2.10;;
20830;SDS011;10576;53.556;9.868;2023-04-24T06:52:42;2.38;;;2.20;;
20830;SDS011;10576;53.556;9.868;2023-04-24T06:55:09;2.43;;;2.20;;
20830;SDS011;10576;53.556;9.868;2023-04-24T06:57:36;2.30;;;2.10;;
20830;SDS011;10576;53.556;9.868;2023-04-24T07:00:02;2.95;;;2.60;;
20830;SDS011;10576;53.556;9.868;2023-04-24T07:02:30;3.17;;;2.40;;
20830;SDS011;10576;53.556;9.868;2023-04-24T07:04:55;2.40;;;2.30;;
20830;SDS011;10576;53.556;9.868;2023-04-24T07:07:21;3.10;;;2.70;;
20830;SDS011;10576;53.556;9.868;2023-04-24T07:09:48;2.85;;;2.65;;
20830;SDS011;10576;53.556;9.868;2023-04-24T07:12:15;3.08;;;2.60;;
20830;SDS011;10576;53.556;9.868;2023-04-24T07:14:42;3.70;;;3.40;;
20830;SDS011;10576;53.556;9.868;2023-04-24T07:17:08;3.10;;;2.90;;
20830;SDS011;10576;53.556;9.868;2023-04-24T07:19:34;3.75;;;3.42;;
20830;SDS011;10576;53.556;9.868;2023-04-24T07:22:02;3.45;;;3.20;;
20830;SDS011;10576;53.556;9.868;2023-04-24T07:24:28;3.97;;;3.67;;
20830;SDS011;10576;53.556;9.868;2023-04-24T07:26:54;3.92;;;3.65;;
20830;SDS011;10576;53.556;9.868;2023-04-24T07:29:20;4.47;;;4.00;;
20830;SDS011;10576;53.556;9.868;2023-04-24T07:31:46;4.30;;;3.90;;
20830;SDS011;10576;53.556;9.868;2023-04-24T07:34:12;3.78;;;3.58;;
20830;SDS011;10576;53.556;9.868;2023-04-24T07:36:37;4.50;;;4.20;;
20830;SDS011;10576;53.556;9.868;2023-04-24T07:39:04;4.35;;;4.05;;
20830;SDS011;10576;53.556;9.868;2023-04-24T07:41:30;4.30;;;3.90;;
20830;SDS011;10576;53.556;9.868;2023-04-24T07:43:56;4.43;;;4.10;;
20830;SDS011;10576;53.556;9.868;2023-04-24T07:46:22;4.80;;;4.40;;
20830;SDS011;10576;53.556;9.868;2023-04-24T07:48:48;4.90;;;4.50;;
20830;SDS011;10576;53.556;9.868;2023-04-24T07:51:14;5.10;;;4.60;;
20830;SDS011;10576;53.556;9.868;2023-04-24T07:53:40;4.75;;;4.35;;
20830;SDS011;10576;53.556;9.868;2023-04-24T07:56:06;6.57;;;4.97;;
20830;SDS011;10576;53.556;9.868;2023-04-24T07:58:32;4.63;;;4.33;;
20830;SDS011;10576;53.556;9.868;2023-04-24T08:00:58;4.70;;;4.30;;
20830;SDS011;10576;53.556;9.868;2023-04-24T08:03:24;4.77;;;4.47;;
20830;SDS011;10576;53.556;9.868;2023-04-24T08:05:49;4.97;;;4.47;;
20830;SDS011;10576;53.556;9.868;2023-04-24T08:08:16;5.28;;;4.88;;
20830;SDS011;10576;53.556;9.868;2023-04-24T08:10:42;5.10;;;4.70;;
20830;SDS011;10576;53.556;9.868;2023-04-24T08:13:07;5.73;;;5.23;;
20830;SDS011;10576;53.556;9.868;2023-04-24T08:15:33;5.63;;;5.20;;
20830;SDS011;10576;53.556;9.868;2023-04-24T08:17:59;6.43;;;5.83;;
20830;SDS011;10576;53.556;9.868;2023-04-24T08:20:24;5.93;;;5.43;;
20830;SDS011;10576;53.556;9.868;2023-04-24T08:22:50;5.87;;;5.43;;
20830;SDS011;10576;53.556;9.868;2023-04-24T08:25:16;5.80;;;5.40;;
20830;SDS011;10576;53.556;9.868;2023-04-24T08:27:42;5.78;;;5.38;;
20830;SDS011;10576;53.556;9.868;2023-04-24T08:30:08;5.83;;;5.33;;
20830;SDS011;10576;53.556;9.868;2023-04-24T08:32:34;5.63;;;5.22;;
20830;SDS011;10576;53.556;9.868;2023-04-24T08:35:00;5.43;;;4.97;;
20830;SDS011;10576;53.556;9.868;2023-04-24T08:37:26;5.53;;;5.07;;
20830;SDS011;10576;53.556;9.868;2023-04-24T08:39:52;5.80;;;5.30;;
20830;SDS011;10576;53.556;9.868;2023-04-24T08:42:18;6.25;;;5.68;;
20830;SDS011;10576;53.556;9.868;2023-04-24T08:44:45;5.70;;;5.30;;
20830;SDS011;10576;53.556;9.868;2023-04-24T08:47:11;6.38;;;5.88;;
20830;SDS011;10576;53.556;9.868;2023-04-24T08:49:37;6.30;;;5.80;;
20830;SDS011;10576;53.556;9.868;2023-04-24T08:52:04;6.43;;;5.85;;
20830;SDS011;10576;53.556;9.868;2023-04-24T08:54:30;6.43;;;5.82;;
20830;SDS011;10576;53.556;9.868;2023-04-24T08:56:58;6.90;;;6.25;;
20830;SDS011;10576;53.556;9.868;2023-04-24T08:59:26;7.07;;;6.50;;
20830;SDS011;10576;53.556;9.868;2023-04-24T09:01:53;7.10;;;6.40;;
20830;SDS011;10576;53.556;9.868;2023-04-24T09:04:19;7.72;;;6.55;;
20830;SDS011;10576;53.556;9.868;2023-04-24T09:06:47;7.38;;;6.70;;
20830;SDS011;10576;53.556;9.868;2023-04-24T09:09:15;7.35;;;6.82;;
20830;SDS011;10576;53.556;9.868;2023-04-24T09:11:42;7.57;;;6.97;;
20830;SDS011;10576;53.556;9.868;2023-04-24T09:14:09;7.38;;;6.72;;
20830;SDS011;10576;53.556;9.868;2023-04-24T09:16:35;7.35;;;6.68;;
20830;SDS011;10576;53.556;9.868;2023-04-24T09:19:01;7.22;;;6.63;;
20830;SDS011;10576;53.556;9.868;2023-04-24T09:21:31;7.18;;;6.50;;
20830;SDS011;10576;53.556;9.868;2023-04-24T09:23:58;6.72;;;6.22;;
20830;SDS011;10576;53.556;9.868;2023-04-24T09:26:26;6.78;;;6.18;;
20830;SDS011;10576;53.556;9.868;2023-04-24T09:28:57;6.80;;;6.20;;
20830;SDS011;10576;53.556;9.868;2023-04-24T09:31:24;6.78;;;6.22;;
20830;SDS011;10576;53.556;9.868;2023-04-24T09:34:02;6.95;;;6.25;;
20830;SDS011;10576;53.556;9.868;2023-04-24T09:36:38;6.70;;;6.03;;
20830;SDS011;10576;53.556;9.868;2023-04-24T09:39:09;7.20;;;6.50;;
20830;SDS011;10576;53.556;9.868;2023-04-24T09:41:51;7.05;;;6.45;;
20830;SDS011;10576;53.556;9.868;2023-04-24T09:44:22;7.40;;;6.70;;
20830;SDS011;10576;53.556;9.868;2023-04-24T09:46:53;7.50;;;6.80;;
20830;SDS011;10576;53.556;9.868;2023-04-24T09:49:24;7.20;;;6.60;;
20830;SDS011;10576;53.556;9.868;2023-04-24T09:51:51;7.95;;;6.93;;
20830;SDS011;10576;53.556;9.868;2023-04-24T09:54:19;8.38;;;7.63;;
20830;SDS011;10576;53.556;9.868;2023-04-24T09:56:47;8.55;;;7.70;;
20830;SDS011;10576;53.556;9.868;2023-04-24T09:59:15;8.23;;;7.38;;
20830;SDS011;10576;53.556;9.868;2023-04-24T10:01:41;8.57;;;7.78;;
20830;SDS011;10576;53.556;9.868;2023-04-24T10:04:22;9.10;;;8.30;;
20830;SDS011;10576;53.556;9.868;2023-04-24T10:06:50;9.13;;;8.23;;
20830;SDS011;10576;53.556;9.868;2023-04-24T10:09:17;9.05;;;8.30;;
20830;SDS011;10576;53.556;9.868;2023-04-24T10:11:45;10.15;;;9.20;;
20830;SDS011;10576;53.556;9.868;2023-04-24T10:14:12;10.25;;;9.27;;
20830;SDS011;10576;53.556;9.868;2023-04-24T10:16:40;9.85;;;8.85;;
20830;SDS011;10576;53.556;9.868;2023-04-24T10:19:07;11.43;;;9.57;;
20830;SDS011;10576;53.556;9.868;2023-04-24T10:21:33;10.57;;;9.63;;
20830;SDS011;10576;53.556;9.868;2023-04-24T10:24:00;13.00;;;10.37;;
20830;SDS011;10576;53.556;9.868;2023-04-24T10:26:28;11.48;;;10.27;;
20830;SDS011;10576;53.556;9.868;2023-04-24T10:28:54;11.10;;;10.00;;
20830;SDS011;10576;53.556;9.868;2023-04-24T10:31:23;11.73;;;10.27;;
20830;SDS011;10576;53.556;9.868;2023-04-24T10:33:49;11.70;;;10.52;;
20830;SDS011;10576;53.556;9.868;2023-04-24T10:36:17;11.38;;;10.27;;
20830;SDS011;10576;53.556;9.868;2023-04-24T10:38:43;11.10;;;10.00;;
20830;SDS011;10576;53.556;9.868;2023-04-24T10:41:12;11.45;;;10.35;;
20830;SDS011;10576;53.556;9.868;2023-04-24T10:43:44;12.70;;;10.35;;
20830;SDS011;10576;53.556;9.868;2023-04-24T10:46:10;14.88;;;10.82;;
20830;SDS011;10576;53.556;9.868;2023-04-24T10:48:54;11.63;;;10.52;;
20830;SDS011;10576;53.556;9.868;2023-04-24T10:51:22;11.60;;;10.57;;
20830;SDS011;10576;53.556;9.868;2023-04-24T10:53:51;11.80;;;10.55;;
20830;SDS011;10576;53.556;9.868;2023-04-24T10:56:17;12.17;;;10.10;;
20830;SDS011;10576;53.556;9.868;2023-04-24T10:58:49;11.27;;;10.18;;
20830;SDS011;10576;53.556;9.868;2023-04-24T11:01:29;12.35;;;10.02;;
20830;SDS011;10576;53.556;9.868;2023-04-24T11:03:57;11.65;;;10.55;;
20830;SDS011;10576;53.556;9.868;2023-04-24T11:06:34;11.30;;;10.30;;
20830;SDS011;10576;53.556;9.868;2023-04-24T11:09:08;11.23;;;10.07;;
20830;SDS011;10576;53.556;9.868;2023-04-24T11:11:37;11.00;;;9.90;;
20830;SDS011;10576;53.556;9.868;2023-04-24T11:14:09;11.00;;;9.93;;
20830;SDS011;10576;53.556;9.868;2023-04-24T11:16:44;10.55;;;9.45;;
20830;SDS011;10576;53.556;9.868;2023-04-24T11:21:42;10.30;;;9.30;;
20830;SDS011;10576;53.556;9.868;2023-04-24T11:24:26;9.93;;;9.03;;
20830;SDS011;10576;53.556;9.868;2023-04-24T11:26:55;10.40;;;9.40;;
20830;SDS011;10576;53.556;9.868;2023-04-24T11:29:22;9.93;;;9.02;;
20830;SDS011;10576;53.556;9.868;2023-04-24T11:32:14;10.13;;;9.23;;
20830;SDS011;10576;53.556;9.868;2023-04-24T11:37:49;10.85;;;9.85;;
20830;SDS011;10576;53.556;9.868;2023-04-24T11:40:17;10.43;;;9.43;;
20830;SDS011;10576;53.556;9.868;2023-04-24T11:42:48;10.47;;;9.47;;
20830;SDS011;10576;53.556;9.868;2023-04-24T11:45:18;11.68;;;10.02;;
20830;SDS011;10576;53.556;9.868;2023-04-24T11:47:48;10.45;;;9.55;;
20830;SDS011;10576;53.556;9.868;2023-04-24T11:50:16;10.95;;;9.85;;
20830;SDS011;10576;53.556;9.868;2023-04-24T11:52:44;9.85;;;8.93;;
20830;SDS011;10576;53.556;9.868;2023-04-24T11:57:39;9.13;;;8.27;;
20830;SDS011;10576;53.556;9.868;2023-04-24T12:00:14;8.80;;;7.93;;
20830;SDS011;10576;53.556;9.868;2023-04-24T12:02:40;8.45;;;7.65;;
20830;SDS011;10576;53.556;9.868;2023-04-24T12:05:06;8.48;;;7.68;;
20830;SDS011;10576;53.556;9.868;2023-04-24T12:07:32;8.45;;;7.60;;
20830;SDS011;10576;53.556;9.868;2023-04-24T12:10:08;7.90;;;7.20;;
20830;SDS011;10576;53.556;9.868;2023-04-24T12:12:34;8.20;;;7.40;;
20830;SDS011;10576;53.556;9.868;2023-04-24T12:15:00;8.30;;;7.50;;
20830;SDS011;10576;53.556;9.868;2023-04-24T12:17:27;7.93;;;7.28;;
20830;SDS011;10576;53.556;9.868;2023-04-24T12:19:59;8.05;;;7.35;;
20830;SDS011;10576;53.556;9.868;2023-04-24T12:22:27;8.48;;;7.68;;
20830;SDS011;10576;53.556;9.868;2023-04-24T12:24:56;8.50;;;7.70;;
20830;SDS011;10576;53.556;9.868;2023-04-24T12:27:29;8.52;;;7.72;;
20830;SDS011;10576;53.556;9.868;2023-04-24T12:29:58;8.67;;;7.97;;
20830;SDS011;10576;53.556;9.868;2023-04-24T12:32:25;9.85;;;8.25;;
20830;SDS011;10576;53.556;9.868;2023-04-24T12:34:55;9.75;;;8.88;;
20830;SDS011;10576;53.556;9.868;2023-04-24T12:37:22;9.70;;;8.80;;
20830;SDS011;10576;53.556;9.868;2023-04-24T12:42:41;10.82;;;9.50;;
20830;SDS011;10576;53.556;9.868;2023-04-24T12:45:08;9.82;;;8.88;;
20830;SDS011;10576;53.556;9.868;2023-04-24T12:47:34;8.10;;;7.40;;
20830;SDS011;10576;53.556;9.868;2023-04-24T12:50:01;8.25;;;7.43;;
20830;SDS011;10576;53.556;9.868;2023-04-24T12:52:27;8.20;;;7.40;;
20830;SDS011;10576;53.556;9.868;2023-04-24T12:54:55;7.90;;;7.20;;
20830;SDS011;10576;53.556;9.868;2023-04-24T12:57:22;7.80;;;7.10;;
20830;SDS011;10576;53.556;9.868;2023-04-24T12:59:49;7.70;;;6.97;;
20830;SDS011;10576;53.556;9.868;2023-04-24T13:02:15;7.47;;;6.82;;
20830;SDS011;10576;53.556;9.868;2023-04-24T13:04:46;7.72;;;7.07;;
20830;SDS011;10576;53.556;9.868;2023-04-24T13:07:12;7.20;;;6.50;;
20830;SDS011;10576;53.556;9.868;2023-04-24T13:09:39;7.38;;;6.68;;
20830;SDS011;10576;53.556;9.868;2023-04-24T13:12:05;8.10;;;6.80;;
20830;SDS011;10576;53.556;9.868;2023-04-24T13:14:31;7.00;;;6.40;;
20830;SDS011;10576;53.556;9.868;2023-04-24T13:16:57;6.90;;;6.30;;
20830;SDS011;10576;53.556;9.868;2023-04-24T13:19:26;6.97;;;6.27;;
20830;SDS011;10576;53.556;9.868;2023-04-24T13:21:56;6.50;;;6.00;;
20830;SDS011;10576;53.556;9.868;2023-04-24T13:24:25;6.50;;;5.90;;
20830;SDS011;10576;53.556;9.868;2023-04-24T13:26:51;6.45;;;5.90;;
20830;SDS011;10576;53.556;9.868;2023-04-24T13:29:17;6.57;;;5.97;;
20830;SDS011;10576;53.556;9.868;2023-04-24T13:31:43;6.28;;;5.70;;
20830;SDS011;10576;53.556;9.868;2023-04-24T13:34:09;6.55;;;6.05;;
20830;SDS011;10576;53.556;9.868;2023-04-24T13:36:35;6.77;;;6.27;;
20830;SDS011;10576;53.556;9.868;2023-04-24T13:39:01;6.45;;;5.93;;
20830;SDS011;10576;53.556;9.868;2023-04-24T13:41:29;7.03;;;6.43;;
20830;SDS011;10576;53.556;9.868;2023-04-24T13:43:55;6.90;;;6.30;;
20830;SDS011;10576;53.556;9.868;2023-04-24T13:46:21;6.97;;;6.32;;
20830;SDS011;10576;53.556;9.868;2023-04-24T13:48:46;6.68;;;6.18;;
20830;SDS011;10576;53.556;9.868;2023-04-24T13:51:12;6.80;;;6.20;;
20830;SDS011;10576;53.556;9.868;2023-04-24T13:53:38;6.88;;;6.18;;
20830;SDS011;10576;53.556;9.868;2023-04-24T13:56:04;6.55;;;5.97;;
20830;SDS011;10576;53.556;9.868;2023-04-24T13:58:34;7.03;;;6.43;;
20830;SDS011;10576;53.556;9.868;2023-04-24T14:01:01;6.60;;;6.10;;
20830;SDS011;10576;53.556;9.868;2023-04-24T14:03:28;6.43;;;5.90;;
20830;SDS011;10576;53.556;9.868;2023-04-24T14:05:54;6.40;;;5.90;;
20830;SDS011;10576;53.556;9.868;2023-04-24T14:08:19;6.60;;;6.10;;
20830;SDS011;10576;53.556;9.868;2023-04-24T14:10:45;6.63;;;6.03;;
20830;SDS011;10576;53.556;9.868;2023-04-24T14:13:11;6.80;;;6.20;;
20830;SDS011;10576;53.556;9.868;2023-04-24T14:15:37;6.70;;;6.10;;
20830;SDS011;10576;53.556;9.868;2023-04-24T14:18:03;6.47;;;5.88;;
20830;SDS011;10576;53.556;9.868;2023-04-24T14:20:28;6.10;;;5.60;;
20830;SDS011;10576;53.556;9.868;2023-04-24T14:22:54;5.90;;;5.40;;
20830;SDS011;10576;53.556;9.868;2023-04-24T14:25:20;6.72;;;6.22;;
20830;SDS011;10576;53.556;9.868;2023-04-24T14:27:47;7.73;;;7.10;;
20830;SDS011;10576;53.556;9.868;2023-04-24T14:30:13;8.27;;;7.50;;
20830;SDS011;10576;53.556;9.868;2023-04-24T14:32:40;8.75;;;8.00;;
20830;SDS011;10576;53.556;9.868;2023-04-24T14:35:06;9.90;;;8.90;;
20830;SDS011;10576;53.556;9.868;2023-04-24T14:37:32;10.85;;;9.85;;
20830;SDS011;10576;53.556;9.868;2023-04-24T14:39:58;11.57;;;10.57;;
20830;SDS011;10576;53.556;9.868;2023-04-24T14:42:23;11.45;;;10.35;;
20830;SDS011;10576;53.556;9.868;2023-04-24T14:44:49;11.85;;;10.82;;
20830;SDS011;10576;53.556;9.868;2023-04-24T14:47:15;12.48;;;11.35;;
20830;SDS011;10576;53.556;9.868;2023-04-24T14:49:42;12.40;;;11.20;;
20830;SDS011;10576;53.556;9.868;2023-04-24T14:52:09;12.48;;;11.18;;
20830;SDS011;10576;53.556;9.868;2023-04-24T14:54:35;12.55;;;11.45;;